Main page
METAR-TAF:

METAR-TAF

Airports :

Nouakchott, Mauritania

Nouakchott–Oumtounsy International Airport

latitude: 18-18-36N, longitude: 015-58-11W, elevation: 3 m

Current weather observation

The report was made 34 minutes ago, at 11:30 UTC
Wind 20 kt from the South/Southwest
Temperature 29°C
Humidity 66%
Pressure 1010 hPa
Visibility: 5000 m
Few clouds at a height of 1800 ft
Blowing sand

METAR: GQNO 261130Z 21020KT 5000 BLSA FEW018 29/22 Q1010 NOSIG

Time: 12:04 (12:04 UTC)


TAF: missing

Weather observations and forecasts of more than 4000 airports (METAR and TAF reports).

The available stations are represented by yellow and red dots on the map.

Hover mouse over dot to see the name of the station.

Then click to see weather observations and forecasts.

To change the map : click on the green buttons with a black cross to zoom in, on the green button with a dash to zoom out, or on the green arrows for adjacent maps.


METAR-TAF: